sensor_id;sensor_type;location;lat;lon;timestamp;pressure;altitude;pressure_sealevel;temperature;humidity
22550;BME280;11441;57.164;-2.120;2023-07-22T00:01:50;100366.50;;;12.60;100.00
22550;BME280;11441;57.164;-2.120;2023-07-22T00:04:17;100365.16;;;12.43;100.00
22550;BME280;11441;57.164;-2.120;2023-07-22T00:06:44;100369.56;;;12.52;100.00
22550;BME280;11441;57.164;-2.120;2023-07-22T00:09:11;100364.22;;;12.66;100.00
22550;BME280;11441;57.164;-2.120;2023-07-22T00:11:37;100359.16;;;12.72;100.00
22550;BME280;11441;57.164;-2.120;2023-07-22T00:14:04;100360.25;;;12.63;100.00
22550;BME280;11441;57.164;-2.120;2023-07-22T00:16:32;100359.88;;;12.65;100.00
22550;BME280;11441;57.164;-2.120;2023-07-22T00:19:00;100354.31;;;12.61;100.00
22550;BME280;11441;57.164;-2.120;2023-07-22T00:21:27;100356.72;;;12.67;100.00
22550;BME280;11441;57.164;-2.120;2023-07-22T00:23:55;100359.13;;;12.68;100.00
22550;BME280;11441;57.164;-2.120;2023-07-22T00:26:22;100354.34;;;12.65;100.00
22550;BME280;11441;57.164;-2.120;2023-07-22T00:28:49;100349.53;;;12.58;100.00
22550;BME280;11441;57.164;-2.120;2023-07-22T00:31:16;100351.72;;;12.42;100.00
22550;BME280;11441;57.164;-2.120;2023-07-22T00:33:43;100346.00;;;12.61;100.00
22550;BME280;11441;57.164;-2.120;2023-07-22T00:36:10;100343.66;;;12.63;100.00
22550;BME280;11441;57.164;-2.120;2023-07-22T00:38:37;100344.00;;;12.58;100.00
22550;BME280;11441;57.164;-2.120;2023-07-22T00:41:04;100341.28;;;12.62;100.00
22550;BME280;11441;57.164;-2.120;2023-07-22T00:43:33;100338.50;;;12.62;100.00
22550;BME280;11441;57.164;-2.120;2023-07-22T00:46:00;100338.13;;;12.63;100.00
22550;BME280;11441;57.164;-2.120;2023-07-22T00:48:27;100328.09;;;12.48;100.00
22550;BME280;11441;57.164;-2.120;2023-07-22T00:50:54;100335.97;;;12.46;100.00
22550;BME280;11441;57.164;-2.120;2023-07-22T00:53:21;100332.75;;;12.40;100.00
22550;BME280;11441;57.164;-2.120;2023-07-22T00:55:49;100327.66;;;12.42;100.00
22550;BME280;11441;57.164;-2.120;2023-07-22T00:58:16;100320.19;;;12.47;100.00
22550;BME280;11441;57.164;-2.120;2023-07-22T01:00:42;100320.75;;;12.59;100.00
22550;BME280;11441;57.164;-2.120;2023-07-22T01:03:09;100324.28;;;12.60;100.00
22550;BME280;11441;57.164;-2.120;2023-07-22T01:05:36;100317.97;;;12.59;100.00
22550;BME280;11441;57.164;-2.120;2023-07-22T01:08:04;100315.50;;;12.51;100.00
22550;BME280;11441;57.164;-2.120;2023-07-22T01:10:31;100317.53;;;12.57;100.00
22550;BME280;11441;57.164;-2.120;2023-07-22T01:12:58;100313.94;;;12.53;100.00
22550;BME280;11441;57.164;-2.120;2023-07-22T01:15:25;100310.81;;;12.55;100.00
22550;BME280;11441;57.164;-2.120;2023-07-22T01:17:52;100302.06;;;12.49;100.00
22550;BME280;11441;57.164;-2.120;2023-07-22T01:20:19;100302.94;;;12.57;100.00
22550;BME280;11441;57.164;-2.120;2023-07-22T01:22:53;100299.75;;;12.55;100.00
22550;BME280;11441;57.164;-2.120;2023-07-22T01:25:21;100312.53;;;12.67;100.00
22550;BME280;11441;57.164;-2.120;2023-07-22T01:27:50;100295.88;;;12.59;100.00
22550;BME280;11441;57.164;-2.120;2023-07-22T01:30:17;100306.13;;;12.59;100.00
22550;BME280;11441;57.164;-2.120;2023-07-22T01:32:45;100306.03;;;12.52;100.00
22550;BME280;11441;57.164;-2.120;2023-07-22T01:35:13;100298.44;;;12.41;100.00
22550;BME280;11441;57.164;-2.120;2023-07-22T01:37:40;100292.19;;;12.48;100.00
22550;BME280;11441;57.164;-2.120;2023-07-22T01:40:07;100292.19;;;12.48;100.00
22550;BME280;11441;57.164;-2.120;2023-07-22T01:42:40;100282.19;;;12.36;100.00
22550;BME280;11441;57.164;-2.120;2023-07-22T01:45:07;100278.22;;;12.34;100.00
22550;BME280;11441;57.164;-2.120;2023-07-22T01:47:51;100276.66;;;12.36;100.00
22550;BME280;11441;57.164;-2.120;2023-07-22T01:50:18;100276.25;;;12.34;100.00
22550;BME280;11441;57.164;-2.120;2023-07-22T01:52:45;100275.06;;;12.32;100.00
22550;BME280;11441;57.164;-2.120;2023-07-22T01:55:13;100266.59;;;12.17;100.00
22550;BME280;11441;57.164;-2.120;2023-07-22T01:57:41;100262.97;;;12.10;100.00
22550;BME280;11441;57.164;-2.120;2023-07-22T02:00:08;100250.31;;;12.08;100.00
22550;BME280;11441;57.164;-2.120;2023-07-22T02:02:43;100264.56;;;12.11;100.00
22550;BME280;11441;57.164;-2.120;2023-07-22T02:05:11;100256.63;;;12.05;100.00
22550;BME280;11441;57.164;-2.120;2023-07-22T02:07:38;100254.97;;;12.01;100.00
22550;BME280;11441;57.164;-2.120;2023-07-22T02:10:06;100245.41;;;11.95;100.00
22550;BME280;11441;57.164;-2.120;2023-07-22T02:12:34;100248.50;;;11.89;100.00
22550;BME280;11441;57.164;-2.120;2023-07-22T02:15:01;100241.44;;;11.62;100.00
22550;BME280;11441;57.164;-2.120;2023-07-22T02:17:29;100245.44;;;11.68;100.00
22550;BME280;11441;57.164;-2.120;2023-07-22T02:19:57;100244.88;;;11.55;100.00
22550;BME280;11441;57.164;-2.120;2023-07-22T02:22:24;100244.59;;;11.64;100.00
22550;BME280;11441;57.164;-2.120;2023-07-22T02:24:51;100235.88;;;11.58;100.00
22550;BME280;11441;57.164;-2.120;2023-07-22T02:31:00;100225.22;;;11.57;100.00
22550;BME280;11441;57.164;-2.120;2023-07-22T02:33:29;100226.75;;;11.54;100.00
22550;BME280;11441;57.164;-2.120;2023-07-22T02:35:55;100227.91;;;11.53;100.00
22550;BME280;11441;57.164;-2.120;2023-07-22T02:38:22;100225.84;;;11.46;100.00
22550;BME280;11441;57.164;-2.120;2023-07-22T02:40:49;100218.31;;;11.43;100.00
22550;BME280;11441;57.164;-2.120;2023-07-22T02:43:16;100225.84;;;11.46;100.00
22550;BME280;11441;57.164;-2.120;2023-07-22T02:45:43;100225.91;;;11.50;100.00
22550;BME280;11441;57.164;-2.120;2023-07-22T02:48:10;100224.19;;;11.42;100.00
22550;BME280;11441;57.164;-2.120;2023-07-22T02:50:37;100214.56;;;11.28;100.00
22550;BME280;11441;57.164;-2.120;2023-07-22T02:53:04;100223.38;;;11.38;100.00
22550;BME280;11441;57.164;-2.120;2023-07-22T02:55:32;100224.88;;;11.35;100.00
22550;BME280;11441;57.164;-2.120;2023-07-22T02:57:59;100227.88;;;11.23;100.00
22550;BME280;11441;57.164;-2.120;2023-07-22T03:00:26;100223.84;;;11.17;100.00
22550;BME280;11441;57.164;-2.120;2023-07-22T03:02:54;100225.78;;;11.16;100.00
22550;BME280;11441;57.164;-2.120;2023-07-22T03:05:28;100226.00;;;11.04;100.00
22550;BME280;11441;57.164;-2.120;2023-07-22T03:07:56;100224.47;;;11.06;100.00
22550;BME280;11441;57.164;-2.120;2023-07-22T03:10:24;100228.00;;;11.07;100.00
22550;BME280;11441;57.164;-2.120;2023-07-22T03:12:56;100230.59;;;10.96;100.00
22550;BME280;11441;57.164;-2.120;2023-07-22T03:15:23;100222.75;;;10.98;100.00
22550;BME280;11441;57.164;-2.120;2023-07-22T03:17:53;100229.97;;;11.06;100.00
22550;BME280;11441;57.164;-2.120;2023-07-22T03:20:20;100225.88;;;10.97;100.00
22550;BME280;11441;57.164;-2.120;2023-07-22T03:22:48;100228.28;;;10.98;100.00
22550;BME280;11441;57.164;-2.120;2023-07-22T03:25:16;100222.34;;;10.96;100.00
22550;BME280;11441;57.164;-2.120;2023-07-22T03:27:46;100216.78;;;10.92;100.00
22550;BME280;11441;57.164;-2.120;2023-07-22T03:30:15;100221.00;;;10.86;100.00
22550;BME280;11441;57.164;-2.120;2023-07-22T03:32:46;100211.53;;;10.84;100.00
22550;BME280;11441;57.164;-2.120;2023-07-22T03:35:19;100213.84;;;10.82;100.00
22550;BME280;11441;57.164;-2.120;2023-07-22T03:37:46;100216.16;;;10.80;100.00
22550;BME280;11441;57.164;-2.120;2023-07-22T03:40:13;100215.25;;;10.72;100.00
22550;BME280;11441;57.164;-2.120;2023-07-22T03:42:51;100219.97;;;10.71;100.00
22550;BME280;11441;57.164;-2.120;2023-07-22T03:45:19;100215.78;;;10.81;100.00
22550;BME280;11441;57.164;-2.120;2023-07-22T03:47:51;100203.50;;;10.75;100.00
22550;BME280;11441;57.164;-2.120;2023-07-22T03:50:19;100214.81;;;10.70;100.00
22550;BME280;11441;57.164;-2.120;2023-07-22T03:52:46;100209.75;;;10.72;100.00
22550;BME280;11441;57.164;-2.120;2023-07-22T03:55:13;100199.41;;;10.65;100.00
22550;BME280;11441;57.164;-2.120;2023-07-22T03:57:40;100211.13;;;10.62;100.00
22550;BME280;11441;57.164;-2.120;2023-07-22T04:00:07;100200.28;;;10.69;100.00
22550;BME280;11441;57.164;-2.120;2023-07-22T04:02:39;100195.84;;;10.65;100.00
22550;BME280;11441;57.164;-2.120;2023-07-22T04:05:07;100203.44;;;10.71;100.00
22550;BME280;11441;57.164;-2.120;2023-07-22T04:07:34;100198.34;;;10.73;100.00
22550;BME280;11441;57.164;-2.120;2023-07-22T04:10:19;100199.50;;;10.72;100.00
22550;BME280;11441;57.164;-2.120;2023-07-22T04:12:46;100190.94;;;10.78;100.00
22550;BME280;11441;57.164;-2.120;2023-07-22T04:15:13;100187.41;;;10.77;100.00
22550;BME280;11441;57.164;-2.120;2023-07-22T04:17:41;100185.13;;;10.83;100.00
22550;BME280;11441;57.164;-2.120;2023-07-22T04:20:09;100183.81;;;10.73;100.00
22550;BME280;11441;57.164;-2.120;2023-07-22T04:22:36;100170.44;;;10.75;100.00
22550;BME280;11441;57.164;-2.120;2023-07-22T04:25:03;100172.13;;;10.83;100.00
22550;BME280;11441;57.164;-2.120;2023-07-22T04:27:50;100162.78;;;10.88;100.00
22550;BME280;11441;57.164;-2.120;2023-07-22T04:30:17;100167.66;;;10.98;100.00
22550;BME280;11441;57.164;-2.120;2023-07-22T04:32:50;100166.44;;;10.96;100.00
22550;BME280;11441;57.164;-2.120;2023-07-22T04:35:17;100166.81;;;10.94;100.00
22550;BME280;11441;57.164;-2.120;2023-07-22T04:37:44;100161.63;;;10.89;100.00
22550;BME280;11441;57.164;-2.120;2023-07-22T04:40:30;100160.16;;;10.99;100.00
22550;BME280;11441;57.164;-2.120;2023-07-22T04:42:57;100162.34;;;11.12;100.00
22550;BME280;11441;57.164;-2.120;2023-07-22T04:45:24;100164.72;;;11.14;100.00
22550;BME280;11441;57.164;-2.120;2023-07-22T04:47:51;100165.59;;;11.18;100.00
22550;BME280;11441;57.164;-2.120;2023-07-22T04:50:36;100162.66;;;11.07;100.00
22550;BME280;11441;57.164;-2.120;2023-07-22T04:53:07;100170.41;;;11.25;100.00
22550;BME280;11441;57.164;-2.120;2023-07-22T04:55:34;100157.38;;;11.22;100.00
22550;BME280;11441;57.164;-2.120;2023-07-22T04:58:00;100169.66;;;11.28;100.00
22550;BME280;11441;57.164;-2.120;2023-07-22T05:00:29;100171.34;;;11.36;100.00
22550;BME280;11441;57.164;-2.120;2023-07-22T05:02:56;100168.88;;;11.27;100.00
22550;BME280;11441;57.164;-2.120;2023-07-22T05:05:23;100176.97;;;11.43;100.00
22550;BME280;11441;57.164;-2.120;2023-07-22T05:07:50;100183.16;;;11.37;100.00
22550;BME280;11441;57.164;-2.120;2023-07-22T05:10:17;100174.72;;;11.52;100.00
22550;BME280;11441;57.164;-2.120;2023-07-22T05:12:45;100180.31;;;11.60;100.00
22550;BME280;11441;57.164;-2.120;2023-07-22T05:15:13;100181.13;;;11.60;100.00
22550;BME280;11441;57.164;-2.120;2023-07-22T05:17:41;100189.13;;;11.69;100.00
22550;BME280;11441;57.164;-2.120;2023-07-22T05:20:08;100181.75;;;11.80;100.00
22550;BME280;11441;57.164;-2.120;2023-07-22T05:22:39;100183.78;;;11.83;100.00
22550;BME280;11441;57.164;-2.120;2023-07-22T05:25:07;100183.03;;;11.86;100.00
22550;BME280;11441;57.164;-2.120;2023-07-22T05:27:34;100184.81;;;12.02;100.00
22550;BME280;11441;57.164;-2.120;2023-07-22T05:30:01;100173.81;;;12.05;100.00
22550;BME280;11441;57.164;-2.120;2023-07-22T05:32:28;100169.78;;;11.99;100.00
22550;BME280;11441;57.164;-2.120;2023-07-22T05:34:59;100171.91;;;12.13;100.00
22550;BME280;11441;57.164;-2.120;2023-07-22T05:37:28;100176.34;;;12.21;100.00
22550;BME280;11441;57.164;-2.120;2023-07-22T05:39:55;100178.66;;;12.16;100.00
22550;BME280;11441;57.164;-2.120;2023-07-22T05:42:22;100166.25;;;11.99;100.00
22550;BME280;11441;57.164;-2.120;2023-07-22T05:44:48;100176.31;;;12.18;100.00
22550;BME280;11441;57.164;-2.120;2023-07-22T05:47:15;100180.19;;;12.13;100.00
22550;BME280;11441;57.164;-2.120;2023-07-22T05:49:44;100179.44;;;12.16;100.00
22550;BME280;11441;57.164;-2.120;2023-07-22T05:52:11;100178.69;;;12.19;100.00
22550;BME280;11441;57.164;-2.120;2023-07-22T05:54:38;100177.59;;;12.31;100.00
22550;BME280;11441;57.164;-2.120;2023-07-22T05:57:05;100176.06;;;12.34;100.00
22550;BME280;11441;57.164;-2.120;2023-07-22T05:59:32;100175.72;;;12.39;100.00
22550;BME280;11441;57.164;-2.120;2023-07-22T06:02:03;100173.84;;;12.50;100.00
22550;BME280;11441;57.164;-2.120;2023-07-22T06:04:30;100170.19;;;12.39;100.00
22550;BME280;11441;57.164;-2.120;2023-07-22T06:06:57;100178.56;;;12.50;100.00
22550;BME280;11441;57.164;-2.120;2023-07-22T06:09:24;100166.22;;;12.36;100.00
22550;BME280;11441;57.164;-2.120;2023-07-22T06:11:51;100168.28;;;12.47;100.00
22550;BME280;11441;57.164;-2.120;2023-07-22T06:14:18;100166.34;;;12.47;100.00
22550;BME280;11441;57.164;-2.120;2023-07-22T06:16:45;100161.91;;;12.39;100.00
22550;BME280;11441;57.164;-2.120;2023-07-22T06:19:30;100160.88;;;12.54;100.00
22550;BME280;11441;57.164;-2.120;2023-07-22T06:21:57;100161.94;;;12.42;100.00
22550;BME280;11441;57.164;-2.120;2023-07-22T06:24:24;100158.50;;;12.56;100.00
22550;BME280;11441;57.164;-2.120;2023-07-22T06:26:50;100160.94;;;12.61;100.00
22550;BME280;11441;57.164;-2.120;2023-07-22T06:29:18;100164.16;;;12.71;100.00
22550;BME280;11441;57.164;-2.120;2023-07-22T06:31:44;100160.38;;;12.93;100.00
22550;BME280;11441;57.164;-2.120;2023-07-22T06:34:11;100163.84;;;12.83;100.00
22550;BME280;11441;57.164;-2.120;2023-07-22T06:36:38;100161.94;;;12.91;100.00
22550;BME280;11441;57.164;-2.120;2023-07-22T06:39:05;100161.16;;;12.94;100.00
22550;BME280;11441;57.164;-2.120;2023-07-22T06:41:32;100161.25;;;13.05;100.00
22550;BME280;11441;57.164;-2.120;2023-07-22T06:43:59;100158.91;;;13.07;100.00
22550;BME280;11441;57.164;-2.120;2023-07-22T06:46:25;100149.13;;;13.24;100.00
22550;BME280;11441;57.164;-2.120;2023-07-22T06:48:53;100144.31;;;13.10;100.00
22550;BME280;11441;57.164;-2.120;2023-07-22T06:51:20;100151.94;;;13.31;100.00
22550;BME280;11441;57.164;-2.120;2023-07-22T06:53:47;100144.84;;;13.33;100.00
22550;BME280;11441;57.164;-2.120;2023-07-22T06:56:13;100150.28;;;13.19;100.00
22550;BME280;11441;57.164;-2.120;2023-07-22T06:58:59;100143.91;;;13.11;100.00
22550;BME280;11441;57.164;-2.120;2023-07-22T07:01:26;100148.34;;;13.30;100.00
22550;BME280;11441;57.164;-2.120;2023-07-22T07:03:52;100154.69;;;13.27;100.00
22550;BME280;11441;57.164;-2.120;2023-07-22T07:06:19;100143.69;;;13.34;100.00
22550;BME280;11441;57.164;-2.120;2023-07-22T07:08:46;100149.28;;;13.49;100.00
22550;BME280;11441;57.164;-2.120;2023-07-22T07:11:13;100158.81;;;13.55;100.00
22550;BME280;11441;57.164;-2.120;2023-07-22T07:13:40;100148.16;;;13.64;100.00
22550;BME280;11441;57.164;-2.120;2023-07-22T07:16:24;100157.25;;;13.65;100.00
22550;BME280;11441;57.164;-2.120;2023-07-22T07:18:53;100151.34;;;13.70;100.00
22550;BME280;11441;57.164;-2.120;2023-07-22T07:21:20;100154.88;;;13.67;100.00
22550;BME280;11441;57.164;-2.120;2023-07-22T07:23:48;100152.09;;;13.63;100.00
22550;BME280;11441;57.164;-2.120;2023-07-22T07:26:15;100150.56;;;13.69;100.00
22550;BME280;11441;57.164;-2.120;2023-07-22T07:28:43;100152.19;;;13.85;100.00
22550;BME280;11441;57.164;-2.120;2023-07-22T07:31:10;100143.91;;;13.92;100.00
22550;BME280;11441;57.164;-2.120;2023-07-22T07:33:37;100154.16;;;13.88;100.00
22550;BME280;11441;57.164;-2.120;2023-07-22T07:36:04;100161.72;;;13.98;100.00
22550;BME280;11441;57.164;-2.120;2023-07-22T07:38:50;100156.97;;;13.95;100.00
22550;BME280;11441;57.164;-2.120;2023-07-22T07:41:17;100153.00;;;14.00;100.00
22550;BME280;11441;57.164;-2.120;2023-07-22T07:43:43;100155.41;;;14.12;100.00
22550;BME280;11441;57.164;-2.120;2023-07-22T07:48:40;100147.09;;;14.01;100.00
22550;BME280;11441;57.164;-2.120;2023-07-22T07:51:07;100149.88;;;14.15;100.00
22550;BME280;11441;57.164;-2.120;2023-07-22T07:53:34;100155.44;;;14.26;100.00
22550;BME280;11441;57.164;-2.120;2023-07-22T07:56:00;100161.78;;;14.27;100.00
22550;BME280;11441;57.164;-2.120;2023-07-22T07:58:27;100157.84;;;14.46;100.00
22550;BME280;11441;57.164;-2.120;2023-07-22T08:00:54;100164.19;;;14.50;100.00
22550;BME280;11441;57.164;-2.120;2023-07-22T08:03:40;100160.63;;;14.46;100.00
22550;BME280;11441;57.164;-2.120;2023-07-22T08:06:09;100161.78;;;14.41;100.00
22550;BME280;11441;57.164;-2.120;2023-07-22T08:08:37;100155.84;;;14.25;100.00
22550;BME280;11441;57.164;-2.120;2023-07-22T08:11:13;100165.34;;;14.38;100.00
22550;BME280;11441;57.164;-2.120;2023-07-22T08:13:42;100160.19;;;14.40;100.00
22550;BME280;11441;57.164;-2.120;2023-07-22T08:16:11;100162.59;;;14.42;100.00
22550;BME280;11441;57.164;-2.120;2023-07-22T08:18:38;100161.00;;;14.44;100.00
22550;BME280;11441;57.164;-2.120;2023-07-22T08:21:06;100162.56;;;14.38;100.00
22550;BME280;11441;57.164;-2.120;2023-07-22T08:23:36;100158.19;;;14.19;100.00
22550;BME280;11441;57.164;-2.120;2023-07-22T08:26:04;100154.22;;;14.02;100.00
22550;BME280;11441;57.164;-2.120;2023-07-22T08:28:34;100158.19;;;14.15;100.00
22550;BME280;11441;57.164;-2.120;2023-07-22T08:31:01;100153.03;;;14.10;100.00
22550;BME280;11441;57.164;-2.120;2023-07-22T08:33:28;100144.72;;;14.14;100.00
22550;BME280;11441;57.164;-2.120;2023-07-22T08:36:26;100143.19;;;14.27;100.00
22550;BME280;11441;57.164;-2.120;2023-07-22T08:38:53;100151.50;;;14.31;100.00
22550;BME280;11441;57.164;-2.120;2023-07-22T08:41:20;100147.94;;;14.38;100.00
22550;BME280;11441;57.164;-2.120;2023-07-22T08:43:50;100150.72;;;14.34;100.00
22550;BME280;11441;57.164;-2.120;2023-07-22T08:46:20;100152.34;;;14.60;100.00
22550;BME280;11441;57.164;-2.120;2023-07-22T08:48:49;100153.94;;;14.65;100.00
22550;BME280;11441;57.164;-2.120;2023-07-22T08:51:19;100148.78;;;14.63;100.00
22550;BME280;11441;57.164;-2.120;2023-07-22T08:53:47;100153.53;;;14.66;100.00
22550;BME280;11441;57.164;-2.120;2023-07-22T08:56:34;100146.00;;;14.63;100.00
22550;BME280;11441;57.164;-2.120;2023-07-22T08:59:02;100139.28;;;14.79;100.00
22550;BME280;11441;57.164;-2.120;2023-07-22T09:01:32;100148.41;;;14.68;100.00
22550;BME280;11441;57.164;-2.120;2023-07-22T09:03:59;100147.56;;;14.68;100.00
22550;BME280;11441;57.164;-2.120;2023-07-22T09:06:26;100143.22;;;14.85;100.00
22550;BME280;11441;57.164;-2.120;2023-07-22T09:08:55;100141.63;;;14.95;100.00
22550;BME280;11441;57.164;-2.120;2023-07-22T09:11:22;100143.63;;;14.80;100.00
22550;BME280;11441;57.164;-2.120;2023-07-22T09:13:51;100140.81;;;14.98;100.00
22550;BME280;11441;57.164;-2.120;2023-07-22T09:16:18;100146.78;;;14.89;100.00
22550;BME280;11441;57.164;-2.120;2023-07-22T09:18:46;100147.94;;;15.13;100.00
22550;BME280;11441;57.164;-2.120;2023-07-22T09:21:13;100147.91;;;15.20;100.00
22550;BME280;11441;57.164;-2.120;2023-07-22T09:23:40;100141.94;;;15.25;100.00
22550;BME280;11441;57.164;-2.120;2023-07-22T09:26:15;100144.69;;;15.40;100.00
22550;BME280;11441;57.164;-2.120;2023-07-22T09:28:56;100146.66;;;15.39;100.00
22550;BME280;11441;57.164;-2.120;2023-07-22T09:31:26;100146.66;;;15.46;100.00
22550;BME280;11441;57.164;-2.120;2023-07-22T09:33:55;100146.66;;;15.46;100.00
22550;BME280;11441;57.164;-2.120;2023-07-22T09:36:54;100153.78;;;15.44;100.00
22550;BME280;11441;57.164;-2.120;2023-07-22T09:39:22;100158.91;;;15.53;100.00
22550;BME280;11441;57.164;-2.120;2023-07-22T09:41:50;100156.09;;;15.78;100.00
22550;BME280;11441;57.164;-2.120;2023-07-22T09:44:19;100165.63;;;15.62;100.00
22550;BME280;11441;57.164;-2.120;2023-07-22T09:46:48;100152.63;;;15.41;100.00
22550;BME280;11441;57.164;-2.120;2023-07-22T09:49:34;100152.19;;;15.50;100.00
22550;BME280;11441;57.164;-2.120;2023-07-22T09:52:09;100161.25;;;15.61;100.00
22550;BME280;11441;57.164;-2.120;2023-07-22T09:54:46;100154.88;;;15.72;100.00
22550;BME280;11441;57.164;-2.120;2023-07-22T09:57:14;100154.88;;;15.72;100.00
22550;BME280;11441;57.164;-2.120;2023-07-22T09:59:41;100157.66;;;15.79;100.00
22550;BME280;11441;57.164;-2.120;2023-07-22T10:02:10;100162.03;;;15.76;100.00
22550;BME280;11441;57.164;-2.120;2023-07-22T10:04:38;100164.81;;;15.73;100.00
22550;BME280;11441;57.164;-2.120;2023-07-22T10:07:07;100157.31;;;15.52;100.00
22550;BME280;11441;57.164;-2.120;2023-07-22T10:09:36;100153.31;;;15.63;100.00
22550;BME280;11441;57.164;-2.120;2023-07-22T10:12:03;100153.69;;;15.73;100.00
22550;BME280;11441;57.164;-2.120;2023-07-22T10:14:31;100157.28;;;15.70;100.00
22550;BME280;11441;57.164;-2.120;2023-07-22T10:17:01;100154.53;;;15.62;100.00
22550;BME280;11441;57.164;-2.120;2023-07-22T10:19:30;100157.59;;;15.90;100.00
22550;BME280;11441;57.164;-2.120;2023-07-22T10:21:58;100153.38;;;15.49;100.00
22550;BME280;11441;57.164;-2.120;2023-07-22T10:24:26;100148.91;;;15.84;100.00
22550;BME280;11441;57.164;-2.120;2023-07-22T10:26:54;100148.88;;;15.88;100.00
22550;BME280;11441;57.164;-2.120;2023-07-22T10:29:21;100147.72;;;15.74;100.00
22550;BME280;11441;57.164;-2.120;2023-07-22T10:31:48;100150.06;;;15.90;100.00
22550;BME280;11441;57.164;-2.120;2023-07-22T10:34:25;100150.53;;;15.63;100.00
22550;BME280;11441;57.164;-2.120;2023-07-22T10:36:56;100137.47;;;15.57;100.00
22550;BME280;11441;57.164;-2.120;2023-07-22T10:39:28;100142.69;;;15.44;100.00
22550;BME280;11441;57.164;-2.120;2023-07-22T10:42:05;100147.75;;;15.67;100.00
22550;BME280;11441;57.164;-2.120;2023-07-22T10:44:50;100143.72;;;15.90;100.00
22550;BME280;11441;57.164;-2.120;2023-07-22T10:47:34;100144.81;;;16.07;100.00
22550;BME280;11441;57.164;-2.120;2023-07-22T10:50:07;100140.78;;;16.18;100.00
22550;BME280;11441;57.164;-2.120;2023-07-22T10:52:41;100151.91;;;16.15;100.00
22550;BME280;11441;57.164;-2.120;2023-07-22T10:55:17;100142.53;;;15.87;100.00
22550;BME280;11441;57.164;-2.120;2023-07-22T10:57:48;100144.97;;;15.78;100.00
22550;BME280;11441;57.164;-2.120;2023-07-22T11:00:20;100142.16;;;15.85;100.00
22550;BME280;11441;57.164;-2.120;2023-07-22T11:03:13;100139.59;;;16.16;100.00
22550;BME280;11441;57.164;-2.120;2023-07-22T11:05:51;100139.84;;;16.39;100.00
22550;BME280;11441;57.164;-2.120;2023-07-22T11:08:36;100153.16;;;16.63;100.00
22550;BME280;11441;57.164;-2.120;2023-07-22T11:11:04;100143.03;;;16.38;100.00
22550;BME280;11441;57.164;-2.120;2023-07-22T11:13:37;100150.53;;;16.41;100.00
22550;BME280;11441;57.164;-2.120;2023-07-22T11:16:11;100146.19;;;16.36;100.00
22550;BME280;11441;57.164;-2.120;2023-07-22T11:18:40;100141.91;;;16.25;100.00
22550;BME280;11441;57.164;-2.120;2023-07-22T11:21:10;100151.53;;;16.69;100.00
22550;BME280;11441;57.164;-2.120;2023-07-22T11:23:37;100141.00;;;16.91;100.00
22550;BME280;11441;57.164;-2.120;2023-07-22T11:26:04;100149.06;;;16.78;100.00
22550;BME280;11441;57.164;-2.120;2023-07-22T11:28:31;100149.81;;;16.82;100.00
22550;BME280;11441;57.164;-2.120;2023-07-22T11:31:17;100142.50;;;16.54;100.00
22550;BME280;11441;57.164;-2.120;2023-07-22T11:33:44;100135.38;;;16.53;100.00
22550;BME280;11441;57.164;-2.120;2023-07-22T11:36:13;100139.22;;;16.66;100.00
22550;BME280;11441;57.164;-2.120;2023-07-22T11:38:41;100131.91;;;16.38;100.00
22550;BME280;11441;57.164;-2.120;2023-07-22T11:41:08;100127.31;;;16.13;100.00
22550;BME280;11441;57.164;-2.120;2023-07-22T11:43:38;100139.56;;;16.72;100.00
22550;BME280;11441;57.164;-2.120;2023-07-22T11:46:05;100129.59;;;16.29;100.00
22550;BME280;11441;57.164;-2.120;2023-07-22T11:48:32;100130.84;;;16.17;100.00
22550;BME280;11441;57.164;-2.120;2023-07-22T11:51:00;100116.00;;;16.38;100.00
22550;BME280;11441;57.164;-2.120;2023-07-22T11:53:27;100122.13;;;16.68;100.00
22550;BME280;11441;57.164;-2.120;2023-07-22T11:55:57;100128.03;;;16.73;100.00
22550;BME280;11441;57.164;-2.120;2023-07-22T11:58:28;100119.06;;;16.55;100.00
22550;BME280;11441;57.164;-2.120;2023-07-22T12:01:10;100123.75;;;16.65;100.00
22550;BME280;11441;57.164;-2.120;2023-07-22T12:03:37;100119.28;;;16.75;100.00
22550;BME280;11441;57.164;-2.120;2023-07-22T12:06:06;100118.75;;;16.42;100.00
22550;BME280;11441;57.164;-2.120;2023-07-22T12:08:33;100115.84;;;16.60;100.00
22550;BME280;11441;57.164;-2.120;2023-07-22T12:11:00;100117.31;;;16.72;100.00
22550;BME280;11441;57.164;-2.120;2023-07-22T12:13:27;100113.16;;;16.94;100.00
22550;BME280;11441;57.164;-2.120;2023-07-22T12:16:05;100108.66;;;17.08;100.00
22550;BME280;11441;57.164;-2.120;2023-07-22T12:18:44;100107.00;;;16.72;100.00
22550;BME280;11441;57.164;-2.120;2023-07-22T12:21:15;100111.78;;;16.68;100.00
22550;BME280;11441;57.164;-2.120;2023-07-22T12:23:42;100111.88;;;17.03;100.00
22550;BME280;11441;57.164;-2.120;2023-07-22T12:26:09;100110.13;;;17.20;100.00
22550;BME280;11441;57.164;-2.120;2023-07-22T12:28:36;100113.53;;;17.00;100.00
22550;BME280;11441;57.164;-2.120;2023-07-22T12:31:03;100114.91;;;16.77;100.00
22550;BME280;11441;57.164;-2.120;2023-07-22T12:33:30;100100.44;;;16.97;100.00
22550;BME280;11441;57.164;-2.120;2023-07-22T12:35:58;100101.88;;;17.12;100.00
22550;BME280;11441;57.164;-2.120;2023-07-22T12:38:24;100097.03;;;17.17;100.00
22550;BME280;11441;57.164;-2.120;2023-07-22T12:40:51;100097.50;;;17.11;100.00
22550;BME280;11441;57.164;-2.120;2023-07-22T12:43:18;100086.13;;;17.33;100.00
22550;BME280;11441;57.164;-2.120;2023-07-22T12:45:45;100095.59;;;17.39;100.00
22550;BME280;11441;57.164;-2.120;2023-07-22T12:48:12;100096.25;;;17.50;100.00